createdAt,value
2023-02-16T00:00:31.000Z,87.14
2023-02-16T00:01:33.000Z,87.09
2023-02-16T00:02:31.000Z,87.18
2023-02-16T00:03:31.000Z,87.17
2023-02-16T00:04:31.000Z,87.12
2023-02-16T00:05:33.000Z,86.99
2023-02-16T00:06:31.000Z,86.93
2023-02-16T00:07:31.000Z,87.17
2023-02-16T00:08:31.000Z,87.16
2023-02-16T00:09:31.000Z,87.06
2023-02-16T00:10:34.000Z,87.05
2023-02-16T00:11:36.000Z,87.02
2023-02-16T00:12:36.000Z,86.83
2023-02-16T00:13:36.000Z,86.77
2023-02-16T00:14:36.000Z,87.10
2023-02-16T00:15:31.000Z,87.11
2023-02-16T00:16:33.000Z,87.36
2023-02-16T00:17:31.000Z,87.34
2023-02-16T00:18:31.000Z,87.29
2023-02-16T00:19:37.000Z,87.62
2023-02-16T00:20:31.000Z,87.95
2023-02-16T00:21:31.000Z,88.16
2023-02-16T00:22:31.000Z,88.15
2023-02-16T00:23:31.000Z,87.93
2023-02-16T00:24:32.000Z,87.92
2023-02-16T00:25:31.000Z,88.04
2023-02-16T00:26:33.000Z,88.02
2023-02-16T00:27:31.000Z,87.86
2023-02-16T00:28:31.000Z,87.59
2023-02-16T00:29:35.000Z,87.80
2023-02-16T00:30:31.000Z,87.72
2023-02-16T00:31:31.000Z,87.72
2023-02-16T00:32:31.000Z,87.91
2023-02-16T00:33:31.000Z,87.95
2023-02-16T00:34:34.000Z,87.95
2023-02-16T00:35:31.000Z,88.00
2023-02-16T00:36:31.000Z,87.83
2023-02-16T00:37:31.000Z,87.96
2023-02-16T00:38:31.000Z,88.02
2023-02-16T00:39:31.000Z,87.95
2023-02-16T00:40:32.000Z,87.95
2023-02-16T00:41:36.000Z,87.97
2023-02-16T00:42:32.000Z,87.83
2023-02-16T00:43:31.000Z,87.89
2023-02-16T00:44:35.000Z,88.43
2023-02-16T00:45:35.000Z,88.35
2023-02-16T00:46:31.000Z,88.49
2023-02-16T00:47:37.000Z,88.51
2023-02-16T00:48:31.000Z,88.44
2023-02-16T00:49:31.000Z,88.51
2023-02-16T00:50:33.000Z,88.42
2023-02-16T00:51:31.000Z,88.51
2023-02-16T00:52:37.000Z,88.39
2023-02-16T00:53:31.000Z,88.49
2023-02-16T00:54:31.000Z,88.47
2023-02-16T00:55:34.000Z,88.63
2023-02-16T00:56:31.000Z,88.37
2023-02-16T00:57:41.000Z,88.38
2023-02-16T00:58:33.000Z,88.44
2023-02-16T00:59:31.000Z,88.23
2023-02-16T01:00:38.000Z,88.21
2023-02-16T01:01:32.000Z,88.18
2023-02-16T01:02:31.000Z,88.28
2023-02-16T01:03:31.000Z,88.40
2023-02-16T01:04:31.000Z,88.34
2023-02-16T01:05:31.000Z,88.36
2023-02-16T01:06:36.000Z,88.22
2023-02-16T01:07:36.000Z,88.12
2023-02-16T01:08:36.000Z,88.67
2023-02-16T01:09:36.000Z,88.55
2023-02-16T01:10:37.000Z,88.70
2023-02-16T01:11:31.000Z,88.76
2023-02-16T01:12:31.000Z,88.75
2023-02-16T01:13:39.000Z,88.67
2023-02-16T01:14:31.000Z,88.57
2023-02-16T01:15:31.000Z,88.40
2023-02-16T01:16:37.000Z,88.52
2023-02-16T01:17:31.000Z,88.76
2023-02-16T01:18:31.000Z,88.79
2023-02-16T01:19:31.000Z,88.83
2023-02-16T01:20:31.000Z,88.67
2023-02-16T01:21:31.000Z,88.93
2023-02-16T01:22:31.000Z,88.96
2023-02-16T01:23:31.000Z,89.06
2023-02-16T01:24:31.000Z,88.98
2023-02-16T01:25:31.000Z,88.95
2023-02-16T01:26:36.000Z,88.87
2023-02-16T01:27:31.000Z,88.99
2023-02-16T01:28:33.000Z,88.85
2023-02-16T01:29:31.000Z,88.76
2023-02-16T01:30:31.000Z,88.87
2023-02-16T01:31:32.000Z,88.56
2023-02-16T01:32:32.000Z,88.64
2023-02-16T01:33:31.000Z,88.78
2023-02-16T01:34:31.000Z,88.96
2023-02-16T01:35:33.000Z,88.78
2023-02-16T01:36:35.000Z,88.52
2023-02-16T01:37:31.000Z,88.92
2023-02-16T01:38:31.000Z,88.92
2023-02-16T01:39:31.000Z,88.82
2023-02-16T01:40:39.000Z,88.84
2023-02-16T01:41:52.000Z,88.71
2023-02-16T01:42:43.000Z,88.65
2023-02-16T01:43:41.000Z,88.51
2023-02-16T01:44:40.000Z,88.36
2023-02-16T01:45:34.000Z,88.43
2023-02-16T01:46:41.000Z,88.47
2023-02-16T01:47:52.000Z,88.30
2023-02-16T01:48:32.000Z,88.20
2023-02-16T01:49:31.000Z,88.32
2023-02-16T01:50:52.000Z,88.49
2023-02-16T01:51:47.000Z,88.60
2023-02-16T01:52:41.000Z,88.40
2023-02-16T01:53:41.000Z,88.60
2023-02-16T01:54:43.000Z,88.54
2023-02-16T01:55:36.000Z,88.52
2023-02-16T01:56:42.000Z,88.24
2023-02-16T01:57:41.000Z,88.49
2023-02-16T01:58:42.000Z,88.41
2023-02-16T01:59:43.000Z,88.45
2023-02-16T02:00:41.000Z,88.53
2023-02-16T02:01:41.000Z,88.31
2023-02-16T02:02:37.000Z,88.51
2023-02-16T02:03:36.000Z,88.45
2023-02-16T02:05:00.000Z,88.58
2023-02-16T02:05:34.000Z,88.62
2023-02-16T02:06:33.000Z,88.59
2023-02-16T02:07:50.000Z,88.49
2023-02-16T02:08:41.000Z,88.42
2023-02-16T02:09:41.000Z,88.62
2023-02-16T02:10:59.000Z,88.61
2023-02-16T02:11:39.000Z,88.11
2023-02-16T02:12:52.000Z,88.56
2023-02-16T02:13:41.000Z,88.38
2023-02-16T02:14:36.000Z,88.73
2023-02-16T02:15:32.000Z,88.87
2023-02-16T02:16:31.000Z,88.87
2023-02-16T02:17:31.000Z,88.83
2023-02-16T02:18:32.000Z,88.85
2023-02-16T02:19:46.000Z,88.64
2023-02-16T02:20:46.000Z,88.65
2023-02-16T02:21:59.000Z,88.46
2023-02-16T02:23:02.000Z,88.49
2023-02-16T02:24:01.000Z,88.57
2023-02-16T02:24:41.000Z,88.51
2023-02-16T02:25:41.000Z,88.44
2023-02-16T02:26:51.000Z,88.33
2023-02-16T02:27:39.000Z,88.33
2023-02-16T02:28:43.000Z,88.40
2023-02-16T02:29:42.000Z,88.57
2023-02-16T02:30:42.000Z,88.20
2023-02-16T02:31:49.000Z,88.17
2023-02-16T02:32:42.000Z,88.38
2023-02-16T02:33:53.000Z,88.55
2023-02-16T02:34:45.000Z,88.64
2023-02-16T02:35:54.000Z,88.65
2023-02-16T02:36:53.000Z,88.99
2023-02-16T02:37:42.000Z,88.72
2023-02-16T02:38:55.000Z,88.66
2023-02-16T02:39:57.000Z,88.78
2023-02-16T02:40:46.000Z,88.85
2023-02-16T02:41:49.000Z,88.98
2023-02-16T02:42:52.000Z,89.01
2023-02-16T02:43:51.000Z,89.03
2023-02-16T02:44:43.000Z,89.00
2023-02-16T02:45:40.000Z,89.01
2023-02-16T02:46:33.000Z,89.01
2023-02-16T02:47:46.000Z,88.96
2023-02-16T02:48:33.000Z,89.03
2023-02-16T02:49:31.000Z,89.11
2023-02-16T02:50:42.000Z,89.05
2023-02-16T02:51:32.000Z,88.96
2023-02-16T02:52:32.000Z,89.27
2023-02-16T02:53:40.000Z,89.46
2023-02-16T02:54:40.000Z,89.49
2023-02-16T02:55:42.000Z,89.39
2023-02-16T02:56:38.000Z,89.32
2023-02-16T02:57:42.000Z,89.17
2023-02-16T02:58:38.000Z,89.29
2023-02-16T02:59:41.000Z,89.52
2023-02-16T03:00:40.000Z,89.36
2023-02-16T03:01:34.000Z,89.38
2023-02-16T03:02:34.000Z,89.45
2023-02-16T03:03:36.000Z,89.25
2023-02-16T03:04:31.000Z,89.16
2023-02-16T03:05:33.000Z,89.26
2023-02-16T03:06:36.000Z,89.25
2023-02-16T03:07:37.000Z,89.40
2023-02-16T03:08:35.000Z,89.48
2023-02-16T03:09:31.000Z,89.41
2023-02-16T03:10:36.000Z,89.60
2023-02-16T03:11:37.000Z,89.69
2023-02-16T03:12:36.000Z,89.86
2023-02-16T03:13:40.000Z,89.78
2023-02-16T03:14:42.000Z,89.88
2023-02-16T03:15:33.000Z,89.70
2023-02-16T03:16:38.000Z,89.77
2023-02-16T03:17:38.000Z,89.70
2023-02-16T03:18:38.000Z,89.63
2023-02-16T03:19:39.000Z,89.59
2023-02-16T03:20:36.000Z,89.42
2023-02-16T03:21:38.000Z,89.56
2023-02-16T03:22:38.000Z,89.48
2023-02-16T03:23:39.000Z,89.38
2023-02-16T03:24:36.000Z,89.51
2023-02-16T03:25:37.000Z,89.63
2023-02-16T03:26:37.000Z,89.63
2023-02-16T03:27:39.000Z,89.81
2023-02-16T03:28:40.000Z,89.93
2023-02-16T03:29:33.000Z,90.09
2023-02-16T03:30:32.000Z,90.24
2023-02-16T03:31:34.000Z,90.29
2023-02-16T03:32:31.000Z,90.32
2023-02-16T03:33:31.000Z,90.55
2023-02-16T03:34:33.000Z,90.68
2023-02-16T03:35:31.000Z,90.91
2023-02-16T03:36:34.000Z,90.62
2023-02-16T03:37:31.000Z,90.73
2023-02-16T03:38:31.000Z,90.60
2023-02-16T03:39:46.000Z,90.69
2023-02-16T03:40:34.000Z,90.55
2023-02-16T03:41:38.000Z,90.90
2023-02-16T03:42:31.000Z,90.72
2023-02-16T03:43:31.000Z,90.66
2023-02-16T03:44:31.000Z,90.88
2023-02-16T03:45:34.000Z,90.93
2023-02-16T03:46:31.000Z,91.05
2023-02-16T03:47:31.000Z,91.29
2023-02-16T03:48:31.000Z,91.33
2023-02-16T03:49:31.000Z,91.25
2023-02-16T03:50:31.000Z,91.18
2023-02-16T03:51:31.000Z,91.21
2023-02-16T03:52:31.000Z,91.29
2023-02-16T03:53:31.000Z,91.49
2023-02-16T03:54:31.000Z,91.52
2023-02-16T03:55:37.000Z,91.68
2023-02-16T03:56:31.000Z,91.49
2023-02-16T03:57:31.000Z,91.58
2023-02-16T03:58:31.000Z,91.42
2023-02-16T03:59:31.000Z,91.50
2023-02-16T04:00:32.000Z,91.53
2023-02-16T04:01:31.000Z,91.72
2023-02-16T04:02:31.000Z,91.42
2023-02-16T04:03:32.000Z,91.60
2023-02-16T04:04:31.000Z,91.61
2023-02-16T04:05:31.000Z,91.31
2023-02-16T04:06:31.000Z,91.56
2023-02-16T04:07:31.000Z,91.61
2023-02-16T04:08:32.000Z,91.54
2023-02-16T04:09:31.000Z,91.51
2023-02-16T04:10:32.000Z,91.44
2023-02-16T04:11:36.000Z,91.29
2023-02-16T04:12:36.000Z,91.33
2023-02-16T04:13:31.000Z,91.30
2023-02-16T04:14:31.000Z,91.37
2023-02-16T04:15:32.000Z,91.42
2023-02-16T04:16:31.000Z,91.28
2023-02-16T04:17:31.000Z,91.60
2023-02-16T04:18:31.000Z,91.58
2023-02-16T04:19:31.000Z,91.50
2023-02-16T04:20:33.000Z,91.67
2023-02-16T04:21:31.000Z,91.71
2023-02-16T04:22:31.000Z,91.57
2023-02-16T04:23:31.000Z,91.60
2023-02-16T04:24:31.000Z,91.57
2023-02-16T04:25:31.000Z,91.45
2023-02-16T04:26:32.000Z,91.60
2023-02-16T04:27:31.000Z,91.39
2023-02-16T04:28:31.000Z,91.54
2023-02-16T04:29:31.000Z,91.48
2023-02-16T04:30:31.000Z,91.52
2023-02-16T04:31:31.000Z,91.46
2023-02-16T04:32:31.000Z,91.37
2023-02-16T04:33:31.000Z,91.53
2023-02-16T04:34:31.000Z,91.69
2023-02-16T04:35:31.000Z,91.41
2023-02-16T04:36:32.000Z,91.49
2023-02-16T04:37:31.000Z,91.60
2023-02-16T04:38:31.000Z,91.62
2023-02-16T04:39:31.000Z,91.43
2023-02-16T04:40:31.000Z,91.59
2023-02-16T04:41:31.000Z,91.55
2023-02-16T04:42:31.000Z,91.62
2023-02-16T04:43:31.000Z,91.58
2023-02-16T04:44:31.000Z,91.80
2023-02-16T04:45:31.000Z,91.70
2023-02-16T04:46:31.000Z,91.87
2023-02-16T04:47:31.000Z,92.00
2023-02-16T04:48:31.000Z,91.80
2023-02-16T04:49:31.000Z,91.74
2023-02-16T04:50:31.000Z,91.92
2023-02-16T04:51:31.000Z,91.91
2023-02-16T04:52:32.000Z,91.89
2023-02-16T04:53:31.000Z,92.01
2023-02-16T04:54:31.000Z,92.28
2023-02-16T04:55:31.000Z,92.29
2023-02-16T04:56:31.000Z,92.01
2023-02-16T04:57:31.000Z,91.86
2023-02-16T04:58:31.000Z,91.81
2023-02-16T04:59:31.000Z,91.94
2023-02-16T05:00:31.000Z,91.86
2023-02-16T05:01:31.000Z,91.85
2023-02-16T05:02:31.000Z,91.83
2023-02-16T05:03:30.000Z,91.79
2023-02-16T05:04:31.000Z,91.81
2023-02-16T05:05:31.000Z,91.82
2023-02-16T05:06:31.000Z,91.84
2023-02-16T05:07:30.000Z,91.81
2023-02-16T05:08:30.000Z,91.90
2023-02-16T05:09:31.000Z,92.01
2023-02-16T05:10:31.000Z,91.87
2023-02-16T05:11:35.000Z,91.86
2023-02-16T05:12:35.000Z,92.08
2023-02-16T05:13:36.000Z,92.19
2023-02-16T05:14:36.000Z,91.96
2023-02-16T05:15:30.000Z,92.28
2023-02-16T05:16:30.000Z,91.97
2023-02-16T05:17:30.000Z,91.77
2023-02-16T05:18:30.000Z,91.73
2023-02-16T05:19:31.000Z,91.78
2023-02-16T05:20:35.000Z,91.80
2023-02-16T05:21:30.000Z,91.72
2023-02-16T05:22:32.000Z,91.75
2023-02-16T05:23:30.000Z,91.85
2023-02-16T05:24:33.000Z,91.73
2023-02-16T05:25:30.000Z,91.80
2023-02-16T05:26:32.000Z,91.87
2023-02-16T05:27:31.000Z,91.85
2023-02-16T05:28:30.000Z,91.84
2023-02-16T05:29:31.000Z,91.89
2023-02-16T05:30:31.000Z,92.09
2023-02-16T05:31:30.000Z,92.25
2023-02-16T05:32:30.000Z,92.18
2023-02-16T05:33:30.000Z,92.16
2023-02-16T05:34:31.000Z,92.11
2023-02-16T05:35:31.000Z,92.16
2023-02-16T05:36:30.000Z,92.03
2023-02-16T05:37:30.000Z,92.03
2023-02-16T05:38:30.000Z,92.06
2023-02-16T05:39:31.000Z,92.13
2023-02-16T05:40:30.000Z,92.03
2023-02-16T05:41:31.000Z,92.07
2023-02-16T05:42:30.000Z,92.20
2023-02-16T05:43:45.000Z,92.17
2023-02-16T05:44:31.000Z,92.21
2023-02-16T05:45:30.000Z,92.12
2023-02-16T05:46:33.000Z,92.21
2023-02-16T05:47:30.000Z,92.17
2023-02-16T05:48:30.000Z,92.24
2023-02-16T05:49:30.000Z,92.27
2023-02-16T05:50:30.000Z,92.23
2023-02-16T05:51:31.000Z,92.26
2023-02-16T05:52:30.000Z,92.35
2023-02-16T05:53:30.000Z,92.26
2023-02-16T05:54:31.000Z,92.36
2023-02-16T05:55:31.000Z,92.22
2023-02-16T05:56:31.000Z,92.26
2023-02-16T05:57:33.000Z,92.12
2023-02-16T05:58:30.000Z,92.13
2023-02-16T05:59:31.000Z,92.20
2023-02-16T06:00:32.000Z,92.15
2023-02-16T06:01:31.000Z,92.08
2023-02-16T06:02:30.000Z,92.08
2023-02-16T06:03:31.000Z,92.24
2023-02-16T06:04:31.000Z,92.26
2023-02-16T06:05:32.000Z,92.07
2023-02-16T06:06:31.000Z,92.09
2023-02-16T06:07:31.000Z,92.01
2023-02-16T06:08:32.000Z,92.12
2023-02-16T06:09:31.000Z,91.97
2023-02-16T06:10:31.000Z,92.13
2023-02-16T06:11:36.000Z,91.96
2023-02-16T06:12:33.000Z,91.91
2023-02-16T06:13:32.000Z,92.03
2023-02-16T06:14:31.000Z,92.17
2023-02-16T06:15:31.000Z,92.08
2023-02-16T06:16:33.000Z,91.92
2023-02-16T06:17:31.000Z,91.86
2023-02-16T06:18:31.000Z,91.83
2023-02-16T06:19:31.000Z,91.85
2023-02-16T06:20:31.000Z,91.76
2023-02-16T06:21:32.000Z,91.72
2023-02-16T06:22:31.000Z,91.84
2023-02-16T06:23:31.000Z,91.77
2023-02-16T06:24:31.000Z,91.75
2023-02-16T06:25:31.000Z,92.05
2023-02-16T06:26:31.000Z,91.94
2023-02-16T06:27:31.000Z,91.94
2023-02-16T06:28:31.000Z,92.10
2023-02-16T06:29:31.000Z,92.11
2023-02-16T06:30:32.000Z,92.00
2023-02-16T06:31:32.000Z,92.14
2023-02-16T06:32:32.000Z,91.99
2023-02-16T06:33:31.000Z,92.08
2023-02-16T06:34:31.000Z,91.93
2023-02-16T06:35:31.000Z,92.06
2023-02-16T06:36:31.000Z,92.13
2023-02-16T06:37:31.000Z,92.01
2023-02-16T06:38:31.000Z,92.11
2023-02-16T06:39:31.000Z,92.14
2023-02-16T06:40:31.000Z,91.95
2023-02-16T06:41:33.000Z,91.95
2023-02-16T06:42:31.000Z,91.91
2023-02-16T06:43:31.000Z,91.97
2023-02-16T06:44:31.000Z,91.98
2023-02-16T06:45:31.000Z,92.12
2023-02-16T06:46:31.000Z,92.13
2023-02-16T06:47:30.000Z,92.19
2023-02-16T06:48:31.000Z,92.10
2023-02-16T06:49:31.000Z,92.06
2023-02-16T06:50:31.000Z,92.07
2023-02-16T06:51:31.000Z,92.09
2023-02-16T06:52:31.000Z,92.10
2023-02-16T06:53:30.000Z,91.99
2023-02-16T06:54:31.000Z,91.98
2023-02-16T06:55:35.000Z,92.18
2023-02-16T06:56:31.000Z,92.29
2023-02-16T06:57:31.000Z,92.11
2023-02-16T06:58:31.000Z,92.31
2023-02-16T06:59:31.000Z,92.37
2023-02-16T07:00:32.000Z,92.26
2023-02-16T07:01:31.000Z,92.40
2023-02-16T07:02:31.000Z,92.37
2023-02-16T07:03:31.000Z,92.25
2023-02-16T07:04:31.000Z,92.05
2023-02-16T07:05:30.000Z,92.01
2023-02-16T07:06:32.000Z,92.23
2023-02-16T07:07:31.000Z,92.31
2023-02-16T07:08:31.000Z,92.22
2023-02-16T07:09:34.000Z,92.21
2023-02-16T07:10:31.000Z,92.12
2023-02-16T07:11:31.000Z,92.15
2023-02-16T07:12:30.000Z,92.16
2023-02-16T07:13:34.000Z,92.15
2023-02-16T07:14:30.000Z,92.18
2023-02-16T07:15:30.000Z,92.20
2023-02-16T07:16:30.000Z,92.14
2023-02-16T07:17:30.000Z,92.21
2023-02-16T07:18:32.000Z,92.24
2023-02-16T07:19:32.000Z,92.32
2023-02-16T07:20:31.000Z,92.30
2023-02-16T07:21:31.000Z,92.47
2023-02-16T07:22:31.000Z,92.46
2023-02-16T07:23:32.000Z,92.45
2023-02-16T07:24:30.000Z,92.57
2023-02-16T07:25:31.000Z,92.60
2023-02-16T07:26:31.000Z,92.70
2023-02-16T07:27:31.000Z,92.63
2023-02-16T07:28:31.000Z,92.59
2023-02-16T07:29:30.000Z,92.61
2023-02-16T07:30:31.000Z,92.78
2023-02-16T07:31:30.000Z,92.66
2023-02-16T07:32:31.000Z,92.71
2023-02-16T07:33:31.000Z,92.69
2023-02-16T07:34:31.000Z,92.54
2023-02-16T07:35:32.000Z,92.58
2023-02-16T07:36:30.000Z,92.57
2023-02-16T07:37:30.000Z,92.62
2023-02-16T07:38:31.000Z,92.71
2023-02-16T07:39:31.000Z,92.62
2023-02-16T07:40:30.000Z,92.47
2023-02-16T07:41:30.000Z,92.41
2023-02-16T07:42:31.000Z,92.45
2023-02-16T07:43:31.000Z,92.64
2023-02-16T07:44:30.000Z,92.90
2023-02-16T07:45:33.000Z,92.86
2023-02-16T07:46:31.000Z,92.76
2023-02-16T07:47:30.000Z,92.59
2023-02-16T07:48:30.000Z,92.57
2023-02-16T07:49:30.000Z,92.75
2023-02-16T07:50:30.000Z,92.53
2023-02-16T07:51:30.000Z,92.48
2023-02-16T07:52:30.000Z,92.41
2023-02-16T07:53:31.000Z,92.42
2023-02-16T07:54:31.000Z,92.37
2023-02-16T07:55:30.000Z,92.38
2023-02-16T07:56:33.000Z,92.42
2023-02-16T07:57:30.000Z,92.41
2023-02-16T07:58:30.000Z,92.37
2023-02-16T07:59:31.000Z,92.63
2023-02-16T08:00:30.000Z,92.57
2023-02-16T08:01:31.000Z,92.37
2023-02-16T08:02:30.000Z,92.57
2023-02-16T08:03:30.000Z,92.49
2023-02-16T08:04:32.000Z,92.40
2023-02-16T08:05:32.000Z,92.44
2023-02-16T08:06:32.000Z,92.40
2023-02-16T08:07:30.000Z,92.66
2023-02-16T08:08:31.000Z,92.49
2023-02-16T08:09:32.000Z,92.59
2023-02-16T08:10:30.000Z,92.39
2023-02-16T08:11:30.000Z,92.32
2023-02-16T08:12:30.000Z,92.18
2023-02-16T08:13:30.000Z,92.16
2023-02-16T08:14:30.000Z,92.20
2023-02-16T08:15:30.000Z,92.18
2023-02-16T08:16:31.000Z,92.03
2023-02-16T08:17:32.000Z,92.12
2023-02-16T08:18:30.000Z,92.18
2023-02-16T08:19:31.000Z,92.09
2023-02-16T08:20:30.000Z,92.01
2023-02-16T08:21:32.000Z,92.05
2023-02-16T08:22:31.000Z,92.07
2023-02-16T08:23:30.000Z,91.99
2023-02-16T08:24:32.000Z,92.08
2023-02-16T08:25:31.000Z,92.14
2023-02-16T08:26:35.000Z,92.14
2023-02-16T08:27:30.000Z,92.09
2023-02-16T08:28:30.000Z,91.80
2023-02-16T08:29:31.000Z,91.78
2023-02-16T08:30:31.000Z,92.03
2023-02-16T08:31:33.000Z,91.96
2023-02-16T08:32:30.000Z,91.96
2023-02-16T08:33:31.000Z,92.03
2023-02-16T08:34:32.000Z,92.08
2023-02-16T08:35:31.000Z,92.10
2023-02-16T08:36:36.000Z,92.16
2023-02-16T08:37:32.000Z,92.09
2023-02-16T08:38:32.000Z,91.82
2023-02-16T08:39:31.000Z,91.75
2023-02-16T08:40:31.000Z,91.64
2023-02-16T08:41:34.000Z,91.72
2023-02-16T08:42:31.000Z,91.62
2023-02-16T08:43:31.000Z,91.68
2023-02-16T08:44:31.000Z,91.59
2023-02-16T08:45:30.000Z,91.54
2023-02-16T08:46:34.000Z,91.43
2023-02-16T08:47:32.000Z,91.46
2023-02-16T08:48:33.000Z,91.53
2023-02-16T08:49:31.000Z,91.44
2023-02-16T08:50:31.000Z,91.67
2023-02-16T08:51:33.000Z,91.76
2023-02-16T08:52:30.000Z,91.60
2023-02-16T08:53:32.000Z,91.60
2023-02-16T08:54:32.000Z,91.83
2023-02-16T08:55:30.000Z,91.50
2023-02-16T08:56:31.000Z,91.11
2023-02-16T08:57:34.000Z,91.38
2023-02-16T08:58:31.000Z,91.38
2023-02-16T08:59:31.000Z,91.25
2023-02-16T09:00:33.000Z,91.25
2023-02-16T09:01:31.000Z,91.05
2023-02-16T09:02:30.000Z,91.15
2023-02-16T09:03:31.000Z,91.07
2023-02-16T09:04:31.000Z,90.82
2023-02-16T09:05:32.000Z,90.94
2023-02-16T09:06:36.000Z,90.56
2023-02-16T09:07:34.000Z,90.10
2023-02-16T09:08:32.000Z,89.92
2023-02-16T09:09:31.000Z,90.13
2023-02-16T09:10:32.000Z,90.12
2023-02-16T09:11:32.000Z,90.28
2023-02-16T09:12:33.000Z,90.21
2023-02-16T09:13:35.000Z,89.62
2023-02-16T09:14:32.000Z,89.73
2023-02-16T09:15:31.000Z,89.27
2023-02-16T09:16:37.000Z,89.40
2023-02-16T09:17:31.000Z,89.05
2023-02-16T09:18:37.000Z,89.08
2023-02-16T09:19:32.000Z,88.80
2023-02-16T09:20:31.000Z,88.92
2023-02-16T09:21:32.000Z,89.20
2023-02-16T09:22:32.000Z,89.01
2023-02-16T09:23:33.000Z,88.93
2023-02-16T09:24:31.000Z,88.92
2023-02-16T09:25:38.000Z,88.99
2023-02-16T09:26:33.000Z,89.31
2023-02-16T09:27:31.000Z,89.21
2023-02-16T09:28:33.000Z,88.71
2023-02-16T09:29:31.000Z,88.26
2023-02-16T09:30:32.000Z,88.29
2023-02-16T09:31:34.000Z,88.33
2023-02-16T09:32:31.000Z,87.93
2023-02-16T09:33:33.000Z,87.52
2023-02-16T09:34:31.000Z,87.56
2023-02-16T09:35:31.000Z,87.65
2023-02-16T09:36:31.000Z,87.40
2023-02-16T09:37:31.000Z,87.34
2023-02-16T09:38:53.000Z,86.75
2023-02-16T09:40:16.000Z,87.35
2023-02-16T09:41:16.000Z,87.29
2023-02-16T09:42:00.000Z,87.39
2023-02-16T09:43:47.000Z,87.10
2023-02-16T09:44:46.000Z,86.57
2023-02-16T09:45:41.000Z,86.74
2023-02-16T09:46:33.000Z,86.56
2023-02-16T09:47:37.000Z,86.77
2023-02-16T09:48:41.000Z,86.80
2023-02-16T09:49:36.000Z,86.78
2023-02-16T09:50:33.000Z,86.86
2023-02-16T09:51:35.000Z,86.64
2023-02-16T09:52:41.000Z,86.78
2023-02-16T09:53:39.000Z,86.30
2023-02-16T09:54:43.000Z,86.09
2023-02-16T09:55:44.000Z,86.08
2023-02-16T09:56:40.000Z,85.73
2023-02-16T09:57:56.000Z,85.67
2023-02-16T09:58:41.000Z,85.86
2023-02-16T09:59:46.000Z,85.47
2023-02-16T10:00:45.000Z,85.63
2023-02-16T10:01:51.000Z,85.40
2023-02-16T10:02:40.000Z,85.62
2023-02-16T10:03:43.000Z,85.62
2023-02-16T10:04:44.000Z,84.96
2023-02-16T10:05:55.000Z,85.44
2023-02-16T10:06:49.000Z,84.87
2023-02-16T10:07:46.000Z,85.18
2023-02-16T10:08:38.000Z,85.38
2023-02-16T10:09:32.000Z,85.20
2023-02-16T10:10:42.000Z,85.28
2023-02-16T10:11:45.000Z,84.86
2023-02-16T10:12:37.000Z,84.87
2023-02-16T10:13:41.000Z,85.05
2023-02-16T10:14:39.000Z,84.64
2023-02-16T10:15:33.000Z,84.70
2023-02-16T10:16:42.000Z,83.84
2023-02-16T10:17:44.000Z,83.72
2023-02-16T10:18:35.000Z,84.24
2023-02-16T10:19:41.000Z,83.90
2023-02-16T10:20:35.000Z,83.79
2023-02-16T10:21:31.000Z,83.58
2023-02-16T10:22:38.000Z,83.60
2023-02-16T10:23:55.000Z,83.28
2023-02-16T10:25:18.000Z,83.10
2023-02-16T10:26:18.000Z,82.90
2023-02-16T10:27:12.000Z,83.14
2023-02-16T10:27:38.000Z,83.59
2023-02-16T10:28:42.000Z,83.33
2023-02-16T10:29:31.000Z,82.52
2023-02-16T10:30:31.000Z,82.68
2023-02-16T10:31:38.000Z,82.82
2023-02-16T10:32:37.000Z,83.00
2023-02-16T10:33:51.000Z,82.98
2023-02-16T10:34:57.000Z,82.96
2023-02-16T10:35:54.000Z,82.78
2023-02-16T10:37:02.000Z,83.04
2023-02-16T10:37:55.000Z,82.80
2023-02-16T10:38:44.000Z,82.71
2023-02-16T10:39:44.000Z,82.35
2023-02-16T10:40:47.000Z,82.74
2023-02-16T10:41:41.000Z,82.35
2023-02-16T10:42:40.000Z,81.72
2023-02-16T10:43:42.000Z,81.03
2023-02-16T10:44:36.000Z,81.24
2023-02-16T10:45:42.000Z,81.62
2023-02-16T10:46:41.000Z,81.19
2023-02-16T10:47:39.000Z,81.01
2023-02-16T10:48:32.000Z,80.83
2023-02-16T10:49:34.000Z,81.24
2023-02-16T10:50:40.000Z,80.33
2023-02-16T10:51:36.000Z,80.81
2023-02-16T10:52:37.000Z,80.38
2023-02-16T10:53:45.000Z,80.38
2023-02-16T10:54:32.000Z,79.43
2023-02-16T10:55:32.000Z,79.75
2023-02-16T10:56:41.000Z,78.71
2023-02-16T10:57:32.000Z,78.97
2023-02-16T10:58:38.000Z,78.04
2023-02-16T10:59:42.000Z,78.32
2023-02-16T11:00:50.000Z,77.95
2023-02-16T11:01:41.000Z,77.66
2023-02-16T11:02:41.000Z,77.28
2023-02-16T11:03:41.000Z,77.70
2023-02-16T11:04:38.000Z,77.81
2023-02-16T11:05:37.000Z,76.29
2023-02-16T11:07:08.000Z,76.21
2023-02-16T11:08:09.000Z,75.59
2023-02-16T11:08:52.000Z,75.16
2023-02-16T11:09:32.000Z,74.86
2023-02-16T11:10:43.000Z,75.48
2023-02-16T11:11:38.000Z,75.02
2023-02-16T11:12:38.000Z,74.93
2023-02-16T11:13:35.000Z,74.86
2023-02-16T11:14:32.000Z,75.14
2023-02-16T11:15:36.000Z,74.37
2023-02-16T11:16:32.000Z,74.65
2023-02-16T11:17:52.000Z,74.71
2023-02-16T11:18:35.000Z,74.60
2023-02-16T11:19:33.000Z,74.44
2023-02-16T11:20:55.000Z,74.51
2023-02-16T11:21:45.000Z,74.03
2023-02-16T11:22:35.000Z,74.16
2023-02-16T11:23:49.000Z,74.89
2023-02-16T11:24:35.000Z,74.45
2023-02-16T11:25:32.000Z,74.87
2023-02-16T11:26:32.000Z,74.31
2023-02-16T11:27:32.000Z,75.07
2023-02-16T11:28:38.000Z,73.82
2023-02-16T11:29:33.000Z,73.55
2023-02-16T11:30:37.000Z,73.53
2023-02-16T11:31:38.000Z,72.80
2023-02-16T11:32:32.000Z,72.86
2023-02-16T11:33:35.000Z,73.19
2023-02-16T11:34:39.000Z,72.90
2023-02-16T11:35:41.000Z,73.54
2023-02-16T11:36:36.000Z,73.50
2023-02-16T11:37:32.000Z,73.24
2023-02-16T11:38:35.000Z,73.21
2023-02-16T11:39:37.000Z,72.37
2023-02-16T11:40:33.000Z,72.69
2023-02-16T11:41:33.000Z,72.86
2023-02-16T11:42:43.000Z,72.99
2023-02-16T11:43:36.000Z,72.64
2023-02-16T11:44:36.000Z,72.45
2023-02-16T11:45:34.000Z,72.73
2023-02-16T11:46:38.000Z,72.84
2023-02-16T11:47:39.000Z,73.00
2023-02-16T11:48:32.000Z,73.33
2023-02-16T11:49:40.000Z,73.26
2023-02-16T11:50:35.000Z,73.24
2023-02-16T11:51:33.000Z,72.96
2023-02-16T11:52:32.000Z,72.88
2023-02-16T11:53:35.000Z,73.22
2023-02-16T11:54:32.000Z,73.22
2023-02-16T11:55:32.000Z,72.45
2023-02-16T11:56:33.000Z,72.40
2023-02-16T11:57:34.000Z,72.88
2023-02-16T11:58:32.000Z,72.57
2023-02-16T11:59:37.000Z,72.74
2023-02-16T12:00:33.000Z,72.65
2023-02-16T12:01:53.000Z,73.05
2023-02-16T12:02:46.000Z,72.69
2023-02-16T12:03:43.000Z,72.61
2023-02-16T12:05:09.000Z,72.32
2023-02-16T12:06:01.000Z,73.11
2023-02-16T12:06:57.000Z,72.95
2023-02-16T12:07:43.000Z,72.79
2023-02-16T12:08:47.000Z,72.19
2023-02-16T12:09:46.000Z,73.05
2023-02-16T12:10:59.000Z,73.05
2023-02-16T12:11:42.000Z,73.36
2023-02-16T12:12:43.000Z,72.82
2023-02-16T12:13:44.000Z,72.43
2023-02-16T12:14:52.000Z,72.06
2023-02-16T12:15:43.000Z,72.24
2023-02-16T12:16:42.000Z,72.34
2023-02-16T12:17:49.000Z,72.30
2023-02-16T12:18:43.000Z,72.22
2023-02-16T12:19:39.000Z,71.42
2023-02-16T12:20:55.000Z,71.50
2023-02-16T12:21:43.000Z,70.86
2023-02-16T12:22:45.000Z,71.13
2023-02-16T12:23:41.000Z,70.66
2023-02-16T12:25:01.000Z,70.40
2023-02-16T12:25:58.000Z,70.32
2023-02-16T12:26:48.000Z,70.42
2023-02-16T12:27:42.000Z,70.04
2023-02-16T12:28:43.000Z,69.88
2023-02-16T12:29:43.000Z,69.72
2023-02-16T12:30:51.000Z,69.36
2023-02-16T12:31:43.000Z,69.21
2023-02-16T12:32:42.000Z,69.29
2023-02-16T12:33:47.000Z,69.32
2023-02-16T12:34:42.000Z,68.74
2023-02-16T12:35:42.000Z,67.21
2023-02-16T12:36:44.000Z,67.25
2023-02-16T12:37:44.000Z,66.54
2023-02-16T12:38:58.000Z,67.07
2023-02-16T12:39:55.000Z,66.85
2023-02-16T12:40:42.000Z,66.43
2023-02-16T12:41:47.000Z,66.20
2023-02-16T12:42:42.000Z,65.02
2023-02-16T12:43:48.000Z,65.55
2023-02-16T12:44:42.000Z,65.00
2023-02-16T12:45:39.000Z,65.24
2023-02-16T12:46:40.000Z,65.59
2023-02-16T12:47:42.000Z,65.01
2023-02-16T12:48:55.000Z,65.37
2023-02-16T12:49:43.000Z,65.37
2023-02-16T12:50:34.000Z,65.39
2023-02-16T12:51:39.000Z,65.13
2023-02-16T12:52:40.000Z,65.98
2023-02-16T12:53:55.000Z,66.00